Hlavní strana
METAR-TAF:

METAR-TAF

Letiště :

Letiště Palma de Mallorca

Palma de Mallorca, Španělsko

zeměpisná šířka: 39-33N, zeměpisná délka: 002-44E, výška: 4 m

Aktuální stav počasí

Zpráva byla vytvořena před 48 minutami, v 01:30 UTC
vítr z různých směrů 2 kt
Teplota 11°C
Vlhkost vzduchu 87%
Tlak 1024 hPa
Viditelnost 10 km a více
Skoro jasno ve výšce 2500 ft

METAR: LEPA 220130Z VRB02KT 9999 FEW025 11/09 Q1024 NOSIG

Čas: 03:18 (02:18 UTC)

Předpověď počasí

Zpráva byla vytvořena před 3 hodinami a 18 minutami, v 23:00 UTC
Předpověď platná od 22 v 00 UTC do 22 v 24 UTC
Severoseverovýchodní vítr 7 kt
Viditelnost 10 km a více
Skoro jasno ve výšce 2000 ft
Změna
od 22 v 08 UTC do 22 v 10 UTC
Severovýchodní vítr 12 kt
Dočasný
od 22 v 08 UTC do 22 v 16 UTC
Východoseverovýchodní vítr 16 kt s nárazy do 28 kt
Změna
od 22 v 18 UTC do 22 v 20 UTC
Severoseverovýchodní vítr 7 kt

TAF: LEPA 212300Z 2200/2224 02007KT 9999 FEW020 TX20/2212Z TN08/2206Z BECMG 2208/2210 05012KT TEMPO 2208/2216 06016G28KT BECMG 2218/2220 03007KT

Stav a předpovědi počasí z více než 4 000 letišť (zprávy METAR a TAF).

Červené a žluté tečky na mapě představují dostupné meteorologické stanice.

Když kurzor umístíte na tečku, zobrazí se název stanice.

Pak kliknutím zobrazíte stav a předpověď počasí.

Chcete-li změnit mapu, kliknutím na zelené tlačítko se znaménkem +mapu přiblížíte, kliknutím na zelené tlačítko se znaménkem – mapu oddálíte a kliknutím na zelené šipky přejdete na sousední mapy.


METAR-TAF: